createdAt,value
2023-03-06T00:02:32.000Z,28.98
2023-03-06T00:06:31.948Z,28.36
2023-03-06T00:10:31.967Z,29.52
2023-03-06T00:14:31.866Z,29.11
2023-03-06T00:18:31.836Z,27.26
2023-03-06T00:22:31.913Z,25.35
2023-03-06T00:26:32.149Z,27.78
2023-03-06T00:30:32.348Z,27.43
2023-03-06T00:34:32.563Z,28.09
2023-03-06T00:38:32.716Z,25.53
2023-03-06T00:42:32.915Z,28.25
2023-03-06T00:46:33.043Z,29.13
2023-03-06T00:50:33.235Z,28.84
2023-03-06T00:54:33.401Z,27.84
2023-03-06T00:58:33.564Z,28.63
2023-03-06T01:02:33.734Z,30.34
2023-03-06T01:06:33.781Z,26.71
2023-03-06T01:10:33.837Z,27.82
2023-03-06T01:14:33.977Z,29.60
2023-03-06T01:18:34.138Z,26.23
2023-03-06T01:22:34.169Z,28.99
2023-03-06T01:26:34.326Z,27.33
2023-03-06T01:30:34.400Z,25.76
2023-03-06T01:34:34.461Z,31.81
2023-03-06T01:38:34.577Z,29.54
2023-03-06T01:42:34.627Z,26.84
2023-03-06T01:46:34.705Z,27.02
2023-03-06T01:50:34.736Z,26.89
2023-03-06T01:54:34.810Z,25.27
2023-03-06T01:58:34.865Z,30.70
2023-03-06T02:02:34.980Z,30.58
2023-03-06T02:06:34.972Z,30.70
2023-03-06T02:10:35.011Z,29.03
2023-03-06T02:14:35.078Z,30.73
2023-03-06T02:18:35.096Z,30.85
2023-03-06T02:22:35.122Z,30.26
2023-03-06T02:26:35.090Z,27.72
2023-03-06T02:30:35.199Z,27.65
2023-03-06T02:34:35.171Z,29.26
2023-03-06T02:38:35.194Z,26.38
2023-03-06T02:42:35.272Z,29.05
2023-03-06T02:46:35.311Z,29.50
2023-03-06T02:50:35.280Z,28.54
2023-03-06T02:54:35.318Z,25.62
2023-03-06T02:58:35.348Z,28.05
2023-03-06T03:02:35.348Z,29.90
2023-03-06T03:06:35.345Z,29.91
2023-03-06T03:10:35.343Z,28.26
2023-03-06T03:14:35.383Z,28.94
2023-03-06T03:18:35.468Z,26.40
2023-03-06T03:22:35.460Z,29.70
2023-03-06T03:26:35.522Z,28.79
2023-03-06T03:30:35.600Z,30.58
2023-03-06T03:34:35.650Z,31.06
2023-03-06T03:38:35.651Z,29.39
2023-03-06T03:42:35.716Z,28.13
2023-03-06T03:46:35.771Z,27.43
2023-03-06T03:50:35.747Z,28.75
2023-03-06T03:54:35.727Z,25.00
2023-03-06T03:58:35.738Z,28.96
2023-03-06T04:02:35.678Z,26.09
2023-03-06T04:06:35.693Z,30.66
2023-03-06T04:10:35.694Z,31.67
2023-03-06T04:14:35.736Z,27.23
2023-03-06T04:18:35.729Z,26.66
2023-03-06T04:22:35.754Z,28.30
2023-03-06T04:26:35.768Z,27.92
2023-03-06T04:30:35.845Z,27.06
2023-03-06T04:34:35.827Z,30.00
2023-03-06T04:38:35.926Z,27.76
2023-03-06T04:42:35.932Z,25.80
2023-03-06T04:46:35.952Z,28.59
2023-03-06T04:50:35.938Z,27.27
2023-03-06T04:54:35.920Z,29.15
2023-03-06T04:58:35.938Z,27.26
2023-03-06T05:02:35.917Z,28.57
2023-03-06T05:06:35.920Z,23.94
2023-03-06T05:10:35.948Z,48.65
2023-03-06T05:14:36.041Z,31.33
2023-03-06T05:18:36.078Z,25.00
2023-03-06T05:22:36.118Z,29.50
2023-03-06T05:26:36.186Z,32.25
2023-03-06T05:30:36.213Z,28.26
2023-03-06T05:34:36.237Z,43.22
2023-03-06T05:38:36.190Z,44.12
2023-03-06T05:42:36.180Z,46.96
2023-03-06T05:46:36.188Z,44.39
2023-03-06T05:50:36.136Z,48.34
2023-03-06T05:54:36.114Z,48.32
2023-03-06T05:58:36.117Z,51.35
2023-03-06T06:02:36.140Z,51.50
2023-03-06T06:06:36.110Z,53.03
2023-03-06T06:10:36.034Z,61.36
2023-03-06T06:14:36.048Z,77.21
2023-03-06T06:18:36.048Z,89.39
2023-03-06T06:22:35.990Z,106.36
2023-03-06T06:26:36.104Z,105.20
2023-03-06T06:30:36.148Z,105.93
2023-03-06T06:34:36.160Z,85.87
2023-03-06T06:38:36.675Z,86.14
2023-03-06T06:42:39.884Z,84.33
2023-03-06T06:50:37.191Z,86.90
2023-03-06T06:54:36.404Z,75.62
2023-03-06T06:58:36.548Z,77.42
2023-03-06T07:02:36.532Z,74.96
2023-03-06T07:06:36.483Z,72.66
2023-03-06T07:10:36.448Z,74.23
2023-03-06T07:14:36.628Z,72.98
2023-03-06T07:18:36.405Z,80.72
2023-03-06T07:22:49.951Z,80.45
2023-03-06T07:26:37.640Z,85.14
2023-03-06T07:30:36.224Z,90.90
2023-03-06T07:34:36.293Z,98.60
2023-03-06T07:38:36.412Z,116.98
2023-03-06T07:42:36.488Z,142.50
2023-03-06T07:46:36.600Z,131.24
2023-03-06T07:50:37.123Z,139.68
2023-03-06T07:54:37.171Z,117.60
2023-03-06T07:58:36.906Z,102.80
2023-03-06T08:02:37.180Z,150.61
2023-03-06T08:06:37.095Z,115.94
2023-03-06T08:10:37.165Z,179.88
2023-03-06T08:14:37.207Z,140.19
2023-03-06T08:18:37.272Z,141.26
2023-03-06T08:22:37.660Z,156.59
2023-03-06T08:26:37.354Z,158.99
2023-03-06T08:30:37.385Z,204.70
2023-03-06T08:34:37.520Z,119.29
2023-03-06T08:38:37.600Z,131.65
2023-03-06T08:42:38.151Z,125.86
2023-03-06T08:46:38.254Z,126.88
2023-03-06T08:50:38.155Z,117.04
2023-03-06T08:54:38.184Z,111.37
2023-03-06T08:58:38.211Z,105.34
2023-03-06T09:02:38.264Z,90.37
2023-03-06T09:06:38.254Z,88.16
2023-03-06T09:10:38.355Z,83.49
2023-03-06T09:14:38.308Z,75.23
2023-03-06T09:18:38.386Z,82.00
2023-03-06T09:22:38.426Z,72.42
2023-03-06T09:26:47.666Z,65.87
2023-03-06T09:30:39.410Z,28.47
2023-03-06T09:34:38.377Z,25.39
2023-03-06T09:38:38.394Z,81.58
2023-03-06T09:42:38.504Z,69.02
2023-03-06T09:46:38.686Z,64.25
2023-03-06T09:50:38.711Z,83.88
2023-03-06T09:54:38.863Z,86.07
2023-03-06T09:58:39.147Z,97.39
2023-03-06T10:02:38.935Z,102.29
2023-03-06T10:06:38.770Z,101.88
2023-03-06T10:10:39.159Z,111.46
2023-03-06T10:14:39.179Z,116.39
2023-03-06T10:18:38.651Z,110.07
2023-03-06T10:22:38.701Z,110.93
2023-03-06T10:26:38.722Z,123.83
2023-03-06T10:30:38.636Z,117.09
2023-03-06T10:34:38.517Z,129.17
2023-03-06T10:38:38.515Z,133.21
2023-03-06T10:42:38.666Z,138.44
2023-03-06T10:46:38.565Z,180.47
2023-03-06T10:50:38.358Z,153.11
2023-03-06T10:54:38.346Z,150.45
2023-03-06T10:58:38.310Z,182.67
2023-03-06T11:02:38.246Z,172.76
2023-03-06T11:06:38.215Z,176.86
2023-03-06T11:10:46.278Z,181.30
2023-03-06T11:14:38.225Z,178.52
2023-03-06T11:18:38.182Z,176.06
2023-03-06T11:22:38.726Z,154.36
2023-03-06T11:26:39.446Z,163.92
2023-03-06T11:30:38.267Z,178.96
2023-03-06T11:34:38.359Z,170.52
2023-03-06T11:38:38.319Z,175.38
2023-03-06T11:42:38.236Z,174.10
2023-03-06T11:46:38.793Z,173.01
2023-03-06T11:50:38.159Z,156.96
2023-03-06T11:54:38.093Z,173.74
2023-03-06T11:58:38.244Z,164.69
2023-03-06T12:02:38.025Z,174.94
2023-03-06T12:06:38.256Z,152.44
2023-03-06T12:10:37.974Z,162.82
2023-03-06T12:14:37.936Z,162.78
2023-03-06T12:18:38.237Z,153.88
2023-03-06T12:22:38.734Z,152.24
2023-03-06T12:26:38.190Z,152.37
2023-03-06T12:30:38.169Z,163.62
2023-03-06T12:34:38.140Z,159.61
2023-03-06T12:38:38.071Z,162.02
2023-03-06T12:42:38.308Z,161.88
2023-03-06T12:46:38.036Z,155.39
2023-03-06T12:50:38.093Z,149.44
2023-03-06T12:54:37.964Z,146.73
2023-03-06T12:58:37.899Z,137.35
2023-03-06T13:02:37.941Z,148.69
2023-03-06T13:06:44.957Z,145.92
2023-03-06T13:10:38.799Z,146.45
2023-03-06T13:14:42.356Z,155.97
2023-03-06T13:18:38.705Z,166.32
2023-03-06T13:22:37.755Z,166.96
2023-03-06T13:26:38.044Z,162.96
2023-03-06T13:30:38.276Z,164.45
2023-03-06T13:34:38.211Z,170.22
2023-03-06T13:38:38.192Z,177.96
2023-03-06T13:42:38.141Z,135.62
2023-03-06T13:46:38.117Z,142.85
2023-03-06T13:50:38.045Z,187.75
2023-03-06T13:54:37.982Z,180.87
2023-03-06T13:58:37.887Z,176.99
2023-03-06T14:02:37.933Z,153.86
2023-03-06T14:06:37.866Z,146.42
2023-03-06T14:10:37.836Z,154.75
2023-03-06T14:14:37.797Z,153.30
2023-03-06T14:18:37.725Z,161.59
2023-03-06T14:22:37.707Z,152.96
2023-03-06T14:26:37.717Z,146.09
2023-03-06T14:30:37.679Z,148.25
2023-03-06T14:34:37.628Z,138.96
2023-03-06T14:38:37.608Z,153.56
2023-03-06T14:42:37.804Z,148.40
2023-03-06T14:46:37.834Z,158.35
2023-03-06T14:50:37.452Z,169.15
2023-03-06T14:54:37.376Z,163.71
2023-03-06T14:58:37.400Z,166.90
2023-03-06T15:02:37.417Z,155.25
2023-03-06T15:06:37.306Z,144.17
2023-03-06T15:10:37.408Z,169.27
2023-03-06T15:14:37.589Z,159.33
2023-03-06T15:18:37.555Z,156.42
2023-03-06T15:22:37.564Z,128.51
2023-03-06T15:26:37.482Z,140.21
2023-03-06T15:30:37.446Z,146.63
2023-03-06T15:34:37.910Z,157.10
2023-03-06T15:38:37.342Z,161.90
2023-03-06T15:42:37.339Z,153.70
2023-03-06T15:46:37.321Z,154.25
2023-03-06T15:50:37.354Z,144.66
2023-03-06T15:54:37.264Z,144.64
2023-03-06T15:58:37.280Z,139.57
2023-03-06T16:02:37.253Z,134.59
2023-03-06T16:06:43.820Z,133.26
2023-03-06T16:10:37.205Z,137.95
2023-03-06T16:14:37.127Z,129.42
2023-03-06T16:18:37.099Z,132.61
2023-03-06T16:22:37.071Z,123.49
2023-03-06T16:26:36.981Z,125.00
2023-03-06T16:30:37.027Z,143.28
2023-03-06T16:34:37.111Z,133.61
2023-03-06T16:38:37.356Z,134.65
2023-03-06T16:42:37.469Z,146.36
2023-03-06T16:46:37.656Z,139.10
2023-03-06T16:50:37.670Z,143.66
2023-03-06T16:54:37.766Z,149.87
2023-03-06T16:58:37.679Z,141.39
2023-03-06T17:02:37.735Z,145.19
2023-03-06T17:06:37.664Z,140.13
2023-03-06T17:10:37.667Z,141.78
2023-03-06T17:14:37.664Z,140.86
2023-03-06T17:18:37.616Z,136.58
2023-03-06T17:22:37.575Z,138.33
2023-03-06T17:26:37.570Z,141.01
2023-03-06T17:30:37.594Z,139.43
2023-03-06T17:34:37.621Z,134.44
2023-03-06T17:38:37.603Z,142.16
2023-03-06T17:42:37.608Z,135.08
2023-03-06T17:46:37.706Z,134.09
2023-03-06T17:50:37.673Z,137.41
2023-03-06T17:54:37.690Z,136.59
2023-03-06T17:58:37.730Z,140.14
2023-03-06T18:02:37.784Z,138.91
2023-03-06T18:06:37.789Z,140.75
2023-03-06T18:10:37.860Z,145.44
2023-03-06T18:14:37.900Z,150.57
2023-03-06T18:18:37.948Z,164.29
2023-03-06T18:22:37.977Z,182.49
2023-03-06T18:26:38.033Z,195.37
2023-03-06T18:30:38.159Z,210.08
2023-03-06T18:34:38.186Z,217.22
2023-03-06T18:38:38.190Z,231.07
2023-03-06T18:42:38.289Z,246.71
2023-03-06T18:46:38.430Z,224.58
2023-03-06T18:50:38.497Z,223.39
2023-03-06T18:54:38.571Z,249.12
2023-03-06T18:58:38.633Z,211.30
2023-03-06T19:02:38.740Z,243.32
2023-03-06T19:06:38.831Z,237.01
2023-03-06T19:10:38.879Z,226.09
2023-03-06T19:14:38.920Z,221.54
2023-03-06T19:18:38.995Z,227.86
2023-03-06T19:22:39.082Z,228.05
2023-03-06T19:26:39.135Z,226.68
2023-03-06T19:30:39.254Z,223.70
2023-03-06T19:34:39.389Z,223.01
2023-03-06T19:38:39.476Z,243.32
2023-03-06T19:42:39.650Z,248.84
2023-03-06T19:46:39.767Z,247.07
2023-03-06T19:50:39.885Z,246.60
2023-03-06T19:54:40.086Z,247.96
2023-03-06T19:58:40.195Z,244.98
2023-03-06T20:02:40.282Z,243.97
2023-03-06T20:06:40.419Z,240.81
2023-03-06T20:10:40.575Z,240.26
2023-03-06T20:14:40.773Z,237.90
2023-03-06T20:18:40.855Z,234.70
2023-03-06T20:22:41.025Z,229.27
2023-03-06T20:26:41.292Z,226.28
2023-03-06T20:30:41.285Z,222.42
2023-03-06T20:34:41.408Z,216.29
2023-03-06T20:38:41.541Z,213.46
2023-03-06T20:42:41.699Z,206.07
2023-03-06T20:46:42.006Z,204.26
2023-03-06T20:50:41.972Z,198.79
2023-03-06T20:54:42.065Z,197.55
2023-03-06T20:58:42.213Z,189.74
2023-03-06T21:02:42.362Z,185.84
2023-03-06T21:06:42.485Z,179.81
2023-03-06T21:10:42.654Z,175.69
2023-03-06T21:14:42.815Z,174.59
2023-03-06T21:18:42.960Z,167.49
2023-03-06T21:22:43.075Z,161.73
2023-03-06T21:26:43.242Z,156.31
2023-03-06T21:30:43.379Z,155.44
2023-03-06T21:34:43.588Z,151.06
2023-03-06T21:38:43.732Z,146.57
2023-03-06T21:42:43.832Z,142.75
2023-03-06T21:46:43.980Z,138.46
2023-03-06T21:50:44.128Z,135.75
2023-03-06T21:54:44.322Z,131.36
2023-03-06T21:58:44.500Z,127.84
2023-03-06T22:02:44.690Z,122.88
2023-03-06T22:06:44.807Z,121.53
2023-03-06T22:10:46.956Z,118.47
2023-03-06T22:14:44.987Z,114.98
2023-03-06T22:18:44.885Z,113.30
2023-03-06T22:22:44.853Z,113.06
2023-03-06T22:26:44.842Z,108.08
2023-03-06T22:30:44.810Z,108.53
2023-03-06T22:34:44.736Z,102.46
2023-03-06T22:38:44.726Z,103.11
2023-03-06T22:42:44.690Z,103.42
2023-03-06T22:46:44.663Z,100.24
2023-03-06T22:50:44.588Z,98.10
2023-03-06T22:54:44.578Z,96.44
2023-03-06T22:58:44.794Z,95.29
2023-03-06T23:02:44.884Z,95.15
2023-03-06T23:06:45.537Z,93.17
2023-03-06T23:10:45.237Z,94.66
2023-03-06T23:14:45.445Z,90.01
2023-03-06T23:18:45.609Z,92.52
2023-03-06T23:22:45.983Z,87.01
2023-03-06T23:26:45.960Z,88.61
2023-03-06T23:30:46.165Z,88.20
2023-03-06T23:34:46.442Z,86.56
2023-03-06T23:38:46.567Z,87.63
2023-03-06T23:42:46.734Z,85.11
2023-03-06T23:46:46.935Z,83.24
2023-03-06T23:50:47.147Z,83.63
2023-03-06T23:54:47.295Z,83.67
2023-03-06T23:58:47.517Z,86.25
